sensor_id;sensor_type;location;lat;lon;timestamp;temperature;humidity
69359;HTU21D;56520;49.066;8.660;2023-02-23T00:01:21;9.03;89.92
69359;HTU21D;56520;49.066;8.660;2023-02-23T00:03:48;9.02;89.89
69359;HTU21D;56520;49.066;8.660;2023-02-23T00:06:15;9.02;89.92
69359;HTU21D;56520;49.066;8.660;2023-02-23T00:08:41;9.02;89.96
69359;HTU21D;56520;49.066;8.660;2023-02-23T00:11:09;9.02;90.08
69359;HTU21D;56520;49.066;8.660;2023-02-23T00:13:37;9.03;90.28
69359;HTU21D;56520;49.066;8.660;2023-02-23T00:16:20;9.04;91.09
69359;HTU21D;56520;49.066;8.660;2023-02-23T00:18:48;9.03;90.66
69359;HTU21D;56520;49.066;8.660;2023-02-23T00:21:17;9.03;90.54
69359;HTU21D;56520;49.066;8.660;2023-02-23T00:23:48;9.02;90.47
69359;HTU21D;56520;49.066;8.660;2023-02-23T00:26:19;9.00;90.47
69359;HTU21D;56520;49.066;8.660;2023-02-23T00:28:46;9.00;90.52
69359;HTU21D;56520;49.066;8.660;2023-02-23T00:31:12;8.97;90.56
69359;HTU21D;56520;49.066;8.660;2023-02-23T00:33:39;8.96;90.66
69359;HTU21D;56520;49.066;8.660;2023-02-23T00:36:07;8.95;90.71
69359;HTU21D;56520;49.066;8.660;2023-02-23T00:38:33;8.94;90.76
69359;HTU21D;56520;49.066;8.660;2023-02-23T00:41:04;8.94;90.91
69359;HTU21D;56520;49.066;8.660;2023-02-23T00:43:38;8.92;90.92
69359;HTU21D;56520;49.066;8.660;2023-02-23T00:46:13;8.91;90.97
69359;HTU21D;56520;49.066;8.660;2023-02-23T00:48:41;8.91;91.03
69359;HTU21D;56520;49.066;8.660;2023-02-23T00:51:06;8.91;91.15
69359;HTU21D;56520;49.066;8.660;2023-02-23T00:53:32;8.90;91.27
69359;HTU21D;56520;49.066;8.660;2023-02-23T00:56:07;8.89;91.28
69359;HTU21D;56520;49.066;8.660;2023-02-23T00:58:36;8.87;91.27
69359;HTU21D;56520;49.066;8.660;2023-02-23T01:01:10;8.87;91.25
69359;HTU21D;56520;49.066;8.660;2023-02-23T01:03:36;8.87;91.26
69359;HTU21D;56520;49.066;8.660;2023-02-23T01:06:05;8.85;91.30
69359;HTU21D;56520;49.066;8.660;2023-02-23T01:08:31;8.83;91.36
69359;HTU21D;56520;49.066;8.660;2023-02-23T01:10:58;8.85;91.43
69359;HTU21D;56520;49.066;8.660;2023-02-23T01:13:36;8.85;91.49
69359;HTU21D;56520;49.066;8.660;2023-02-23T01:16:15;8.83;91.69
69359;HTU21D;56520;49.066;8.660;2023-02-23T01:18:45;8.82;91.89
69359;HTU21D;56520;49.066;8.660;2023-02-23T01:21:21;8.81;91.87
69359;HTU21D;56520;49.066;8.660;2023-02-23T01:23:47;8.82;91.86
69359;HTU21D;56520;49.066;8.660;2023-02-23T01:26:21;8.80;91.92
69359;HTU21D;56520;49.066;8.660;2023-02-23T01:28:51;8.78;92.14
69359;HTU21D;56520;49.066;8.660;2023-02-23T01:31:17;8.79;92.30
69359;HTU21D;56520;49.066;8.660;2023-02-23T01:33:43;8.80;92.43
69359;HTU21D;56520;49.066;8.660;2023-02-23T01:36:10;8.80;92.38
69359;HTU21D;56520;49.066;8.660;2023-02-23T01:38:36;8.79;92.39
69359;HTU21D;56520;49.066;8.660;2023-02-23T01:41:01;8.80;92.41
69359;HTU21D;56520;49.066;8.660;2023-02-23T01:43:52;8.80;92.44
69359;HTU21D;56520;49.066;8.660;2023-02-23T01:46:18;8.80;92.50
69359;HTU21D;56520;49.066;8.660;2023-02-23T01:48:43;8.80;92.50
69359;HTU21D;56520;49.066;8.660;2023-02-23T01:51:11;8.81;92.53
69359;HTU21D;56520;49.066;8.660;2023-02-23T01:53:41;8.80;92.62
69359;HTU21D;56520;49.066;8.660;2023-02-23T01:56:13;8.80;92.66
69359;HTU21D;56520;49.066;8.660;2023-02-23T01:58:44;8.80;92.83
69359;HTU21D;56520;49.066;8.660;2023-02-23T02:01:10;8.78;92.92
69359;HTU21D;56520;49.066;8.660;2023-02-23T02:06:12;8.78;93.09
69359;HTU21D;56520;49.066;8.660;2023-02-23T02:08:49;8.77;93.12
69359;HTU21D;56520;49.066;8.660;2023-02-23T02:11:19;8.76;93.14
69359;HTU21D;56520;49.066;8.660;2023-02-23T02:14:13;8.75;93.24
69359;HTU21D;56520;49.066;8.660;2023-02-23T02:22:28;8.68;94.08
69359;HTU21D;56520;49.066;8.660;2023-02-23T02:25:25;8.65;94.27
69359;HTU21D;56520;49.066;8.660;2023-02-23T02:36:35;8.61;94.73
69359;HTU21D;56520;49.066;8.660;2023-02-23T02:39:14;8.61;94.70
69359;HTU21D;56520;49.066;8.660;2023-02-23T02:41:56;8.60;94.91
69359;HTU21D;56520;49.066;8.660;2023-02-23T02:47:26;8.61;94.91
69359;HTU21D;56520;49.066;8.660;2023-02-23T02:50:13;8.60;95.15
69359;HTU21D;56520;49.066;8.660;2023-02-23T02:53:00;8.58;95.08
69359;HTU21D;56520;49.066;8.660;2023-02-23T02:55:29;8.57;95.04
69359;HTU21D;56520;49.066;8.660;2023-02-23T02:58:03;8.58;95.05
69359;HTU21D;56520;49.066;8.660;2023-02-23T03:00:46;8.58;95.06
69359;HTU21D;56520;49.066;8.660;2023-02-23T03:03:31;8.58;95.11
69359;HTU21D;56520;49.066;8.660;2023-02-23T03:06:18;8.60;95.32
69359;HTU21D;56520;49.066;8.660;2023-02-23T03:12:26;8.60;95.87
69359;HTU21D;56520;49.066;8.660;2023-02-23T03:18:21;8.58;95.95
69359;HTU21D;56520;49.066;8.660;2023-02-23T03:21:15;8.61;96.29
69359;HTU21D;56520;49.066;8.660;2023-02-23T03:24:14;8.60;96.36
69359;HTU21D;56520;49.066;8.660;2023-02-23T03:27:13;8.56;96.39
69359;HTU21D;56520;49.066;8.660;2023-02-23T03:30:35;8.55;96.39
69359;HTU21D;56520;49.066;8.660;2023-02-23T03:33:18;8.55;96.52
69359;HTU21D;56520;49.066;8.660;2023-02-23T03:36:14;8.55;96.62
69359;HTU21D;56520;49.066;8.660;2023-02-23T03:39:29;8.53;96.52
69359;HTU21D;56520;49.066;8.660;2023-02-23T03:42:18;8.55;96.52
69359;HTU21D;56520;49.066;8.660;2023-02-23T03:45:10;8.55;96.52
69359;HTU21D;56520;49.066;8.660;2023-02-23T03:47:55;8.52;96.53
69359;HTU21D;56520;49.066;8.660;2023-02-23T03:50:45;8.55;96.60
69359;HTU21D;56520;49.066;8.660;2023-02-23T03:54:07;8.52;96.63
69359;HTU21D;56520;49.066;8.660;2023-02-23T03:56:55;8.51;96.64
69359;HTU21D;56520;49.066;8.660;2023-02-23T03:59:45;8.52;96.62
69359;HTU21D;56520;49.066;8.660;2023-02-23T04:02:33;8.51;96.58
69359;HTU21D;56520;49.066;8.660;2023-02-23T04:05:19;8.51;96.68
69359;HTU21D;56520;49.066;8.660;2023-02-23T04:08:06;8.53;96.68
69359;HTU21D;56520;49.066;8.660;2023-02-23T04:11:14;8.53;96.78
69359;HTU21D;56520;49.066;8.660;2023-02-23T04:14:03;8.51;96.80
69359;HTU21D;56520;49.066;8.660;2023-02-23T04:16:31;8.48;96.80
69359;HTU21D;56520;49.066;8.660;2023-02-23T04:18:57;8.49;96.84
69359;HTU21D;56520;49.066;8.660;2023-02-23T04:21:22;8.48;96.91
69359;HTU21D;56520;49.066;8.660;2023-02-23T04:23:51;8.47;96.94
69359;HTU21D;56520;49.066;8.660;2023-02-23T04:26:16;8.45;96.98
69359;HTU21D;56520;49.066;8.660;2023-02-23T04:28:41;8.46;97.04
69359;HTU21D;56520;49.066;8.660;2023-02-23T04:31:07;8.46;97.16
69359;HTU21D;56520;49.066;8.660;2023-02-23T04:33:32;8.45;97.19
69359;HTU21D;56520;49.066;8.660;2023-02-23T04:35:58;8.44;97.32
69359;HTU21D;56520;49.066;8.660;2023-02-23T04:38:23;8.44;97.42
69359;HTU21D;56520;49.066;8.660;2023-02-23T04:40:49;8.44;97.49
69359;HTU21D;56520;49.066;8.660;2023-02-23T04:43:14;8.43;97.54
69359;HTU21D;56520;49.066;8.660;2023-02-23T04:45:40;8.43;97.55
69359;HTU21D;56520;49.066;8.660;2023-02-23T04:48:06;8.42;97.58
69359;HTU21D;56520;49.066;8.660;2023-02-23T04:50:32;8.41;97.59
69359;HTU21D;56520;49.066;8.660;2023-02-23T04:52:57;8.38;97.64
69359;HTU21D;56520;49.066;8.660;2023-02-23T04:55:24;8.35;97.65
69359;HTU21D;56520;49.066;8.660;2023-02-23T04:57:51;8.33;97.65
69359;HTU21D;56520;49.066;8.660;2023-02-23T05:00:17;8.31;97.65
69359;HTU21D;56520;49.066;8.660;2023-02-23T05:02:43;8.26;97.68
69359;HTU21D;56520;49.066;8.660;2023-02-23T05:05:10;8.26;97.72
69359;HTU21D;56520;49.066;8.660;2023-02-23T05:07:36;8.23;97.74
69359;HTU21D;56520;49.066;8.660;2023-02-23T05:10:03;8.23;97.74
69359;HTU21D;56520;49.066;8.660;2023-02-23T05:12:29;8.23;97.74
69359;HTU21D;56520;49.066;8.660;2023-02-23T05:14:54;8.21;97.75
69359;HTU21D;56520;49.066;8.660;2023-02-23T05:17:20;8.20;97.74
69359;HTU21D;56520;49.066;8.660;2023-02-23T05:19:46;8.17;97.74
69359;HTU21D;56520;49.066;8.660;2023-02-23T05:22:11;8.12;97.80
69359;HTU21D;56520;49.066;8.660;2023-02-23T05:24:40;8.06;97.84
69359;HTU21D;56520;49.066;8.660;2023-02-23T05:27:14;8.01;97.87
69359;HTU21D;56520;49.066;8.660;2023-02-23T05:29:43;7.96;97.90
69359;HTU21D;56520;49.066;8.660;2023-02-23T05:32:09;7.89;97.92
69359;HTU21D;56520;49.066;8.660;2023-02-23T05:34:34;7.85;97.94
69359;HTU21D;56520;49.066;8.660;2023-02-23T05:37:00;7.82;98.02
69359;HTU21D;56520;49.066;8.660;2023-02-23T05:39:26;7.79;98.06
69359;HTU21D;56520;49.066;8.660;2023-02-23T05:41:51;7.79;98.10
69359;HTU21D;56520;49.066;8.660;2023-02-23T05:44:17;7.77;98.12
69359;HTU21D;56520;49.066;8.660;2023-02-23T05:46:44;7.78;98.14
69359;HTU21D;56520;49.066;8.660;2023-02-23T05:49:11;7.77;98.14
69359;HTU21D;56520;49.066;8.660;2023-02-23T05:51:36;7.77;98.16
69359;HTU21D;56520;49.066;8.660;2023-02-23T05:54:03;7.82;98.17
69359;HTU21D;56520;49.066;8.660;2023-02-23T05:56:34;7.84;98.17
69359;HTU21D;56520;49.066;8.660;2023-02-23T05:59:04;7.88;98.16
69359;HTU21D;56520;49.066;8.660;2023-02-23T06:01:30;7.92;98.13
69359;HTU21D;56520;49.066;8.660;2023-02-23T06:03:55;7.96;98.10
69359;HTU21D;56520;49.066;8.660;2023-02-23T06:06:22;7.98;98.05
69359;HTU21D;56520;49.066;8.660;2023-02-23T06:08:50;8.01;98.03
69359;HTU21D;56520;49.066;8.660;2023-02-23T06:11:16;8.04;98.00
69359;HTU21D;56520;49.066;8.660;2023-02-23T06:13:41;8.06;98.00
69359;HTU21D;56520;49.066;8.660;2023-02-23T06:16:07;8.07;98.01
69359;HTU21D;56520;49.066;8.660;2023-02-23T06:18:32;8.07;98.00
69359;HTU21D;56520;49.066;8.660;2023-02-23T06:20:58;8.07;97.97
69359;HTU21D;56520;49.066;8.660;2023-02-23T06:23:25;8.07;98.03
69359;HTU21D;56520;49.066;8.660;2023-02-23T06:25:51;8.09;98.05
69359;HTU21D;56520;49.066;8.660;2023-02-23T06:28:17;8.09;98.05
69359;HTU21D;56520;49.066;8.660;2023-02-23T06:30:42;8.09;98.07
69359;HTU21D;56520;49.066;8.660;2023-02-23T06:33:08;8.13;98.13
69359;HTU21D;56520;49.066;8.660;2023-02-23T06:35:34;8.14;98.03
69359;HTU21D;56520;49.066;8.660;2023-02-23T06:38:00;8.13;98.03
69359;HTU21D;56520;49.066;8.660;2023-02-23T06:40:26;8.12;98.03
69359;HTU21D;56520;49.066;8.660;2023-02-23T06:42:52;8.14;98.05
69359;HTU21D;56520;49.066;8.660;2023-02-23T06:45:17;8.16;98.00
69359;HTU21D;56520;49.066;8.660;2023-02-23T06:47:44;8.17;98.00
69359;HTU21D;56520;49.066;8.660;2023-02-23T06:50:10;8.19;98.00
69359;HTU21D;56520;49.066;8.660;2023-02-23T06:52:36;8.22;97.97
69359;HTU21D;56520;49.066;8.660;2023-02-23T06:55:02;8.23;97.94
69359;HTU21D;56520;49.066;8.660;2023-02-23T06:57:27;8.26;97.92
69359;HTU21D;56520;49.066;8.660;2023-02-23T06:59:53;8.28;97.89
69359;HTU21D;56520;49.066;8.660;2023-02-23T07:02:18;8.30;97.89
69359;HTU21D;56520;49.066;8.660;2023-02-23T07:04:44;8.34;97.89
69359;HTU21D;56520;49.066;8.660;2023-02-23T07:07:10;8.36;97.85
69359;HTU21D;56520;49.066;8.660;2023-02-23T07:09:38;8.39;97.91
69359;HTU21D;56520;49.066;8.660;2023-02-23T07:12:04;8.42;97.83
69359;HTU21D;56520;49.066;8.660;2023-02-23T07:14:29;8.44;97.78
69359;HTU21D;56520;49.066;8.660;2023-02-23T07:16:55;8.46;97.73
69359;HTU21D;56520;49.066;8.660;2023-02-23T07:19:21;8.47;97.72
69359;HTU21D;56520;49.066;8.660;2023-02-23T07:21:47;8.49;97.68
69359;HTU21D;56520;49.066;8.660;2023-02-23T07:24:13;8.49;97.65
69359;HTU21D;56520;49.066;8.660;2023-02-23T07:26:38;8.51;97.60
69359;HTU21D;56520;49.066;8.660;2023-02-23T07:29:05;8.53;97.62
69359;HTU21D;56520;49.066;8.660;2023-02-23T07:31:30;8.55;97.61
69359;HTU21D;56520;49.066;8.660;2023-02-23T07:33:56;8.55;97.64
69359;HTU21D;56520;49.066;8.660;2023-02-23T07:36:22;8.58;97.62
69359;HTU21D;56520;49.066;8.660;2023-02-23T07:38:48;8.60;97.52
69359;HTU21D;56520;49.066;8.660;2023-02-23T07:41:21;8.60;97.51
69359;HTU21D;56520;49.066;8.660;2023-02-23T07:43:47;8.61;97.52
69359;HTU21D;56520;49.066;8.660;2023-02-23T07:46:12;8.63;97.47
69359;HTU21D;56520;49.066;8.660;2023-02-23T07:48:40;8.63;97.42
69359;HTU21D;56520;49.066;8.660;2023-02-23T07:51:10;8.63;97.34
69359;HTU21D;56520;49.066;8.660;2023-02-23T07:53:36;8.61;97.43
69359;HTU21D;56520;49.066;8.660;2023-02-23T07:56:02;8.61;97.49
69359;HTU21D;56520;49.066;8.660;2023-02-23T07:58:28;8.62;97.55
69359;HTU21D;56520;49.066;8.660;2023-02-23T08:00:55;8.66;97.55
69359;HTU21D;56520;49.066;8.660;2023-02-23T08:03:21;8.73;97.54
69359;HTU21D;56520;49.066;8.660;2023-02-23T08:05:50;8.80;97.58
69359;HTU21D;56520;49.066;8.660;2023-02-23T08:08:16;8.86;97.48
69359;HTU21D;56520;49.066;8.660;2023-02-23T08:10:42;8.89;97.42
69359;HTU21D;56520;49.066;8.660;2023-02-23T08:13:08;8.91;97.38
69359;HTU21D;56520;49.066;8.660;2023-02-23T08:15:33;8.93;97.38
69359;HTU21D;56520;49.066;8.660;2023-02-23T08:17:58;8.97;97.41
69359;HTU21D;56520;49.066;8.660;2023-02-23T08:20:24;9.03;97.43
69359;HTU21D;56520;49.066;8.660;2023-02-23T08:22:53;9.10;97.49
69359;HTU21D;56520;49.066;8.660;2023-02-23T08:25:19;9.17;97.54
69359;HTU21D;56520;49.066;8.660;2023-02-23T08:27:46;9.24;97.62
69359;HTU21D;56520;49.066;8.660;2023-02-23T08:30:12;9.33;97.68
69359;HTU21D;56520;49.066;8.660;2023-02-23T08:32:38;9.49;97.69
69359;HTU21D;56520;49.066;8.660;2023-02-23T08:35:04;9.67;97.66
69359;HTU21D;56520;49.066;8.660;2023-02-23T08:37:31;9.91;97.52
69359;HTU21D;56520;49.066;8.660;2023-02-23T08:39:56;10.11;97.16
69359;HTU21D;56520;49.066;8.660;2023-02-23T08:42:23;10.38;96.72
69359;HTU21D;56520;49.066;8.660;2023-02-23T08:44:49;10.65;96.18
69359;HTU21D;56520;49.066;8.660;2023-02-23T08:47:15;11.01;95.81
69359;HTU21D;56520;49.066;8.660;2023-02-23T08:49:51;11.33;94.70
69359;HTU21D;56520;49.066;8.660;2023-02-23T08:52:19;11.57;94.50
69359;HTU21D;56520;49.066;8.660;2023-02-23T08:54:44;11.79;93.21
69359;HTU21D;56520;49.066;8.660;2023-02-23T08:57:10;12.01;91.62
69359;HTU21D;56520;49.066;8.660;2023-02-23T08:59:35;12.26;90.96
69359;HTU21D;56520;49.066;8.660;2023-02-23T09:02:03;12.31;90.15
69359;HTU21D;56520;49.066;8.660;2023-02-23T09:04:30;12.43;89.32
69359;HTU21D;56520;49.066;8.660;2023-02-23T09:07:00;12.89;86.00
69359;HTU21D;56520;49.066;8.660;2023-02-23T09:09:26;13.52;82.53
69359;HTU21D;56520;49.066;8.660;2023-02-23T09:11:51;14.04;80.84
69359;HTU21D;56520;49.066;8.660;2023-02-23T09:14:18;14.75;75.32
69359;HTU21D;56520;49.066;8.660;2023-02-23T09:16:43;15.08;76.82
69359;HTU21D;56520;49.066;8.660;2023-02-23T09:19:09;15.56;75.49
69359;HTU21D;56520;49.066;8.660;2023-02-23T09:21:35;15.78;72.68
69359;HTU21D;56520;49.066;8.660;2023-02-23T09:24:01;15.90;70.00
69359;HTU21D;56520;49.066;8.660;2023-02-23T09:26:27;15.63;70.19
69359;HTU21D;56520;49.066;8.660;2023-02-23T09:28:54;15.40;70.68
69359;HTU21D;56520;49.066;8.660;2023-02-23T09:31:22;14.97;72.00
69359;HTU21D;56520;49.066;8.660;2023-02-23T09:33:48;14.59;73.66
69359;HTU21D;56520;49.066;8.660;2023-02-23T09:36:23;14.28;73.92
69359;HTU21D;56520;49.066;8.660;2023-02-23T09:38:51;14.32;74.11
69359;HTU21D;56520;49.066;8.660;2023-02-23T09:46:47;15.19;72.99
69359;HTU21D;56520;49.066;8.660;2023-02-23T09:49:20;15.18;72.03
69359;HTU21D;56520;49.066;8.660;2023-02-23T09:51:50;15.24;70.93
69359;HTU21D;56520;49.066;8.660;2023-02-23T09:54:22;15.22;70.64
69359;HTU21D;56520;49.066;8.660;2023-02-23T09:56:49;15.15;70.23
69359;HTU21D;56520;49.066;8.660;2023-02-23T09:59:17;14.97;70.66
69359;HTU21D;56520;49.066;8.660;2023-02-23T10:04:32;14.49;72.21
69359;HTU21D;56520;49.066;8.660;2023-02-23T10:07:20;14.43;73.67
69359;HTU21D;56520;49.066;8.660;2023-02-23T10:10:14;14.98;74.31
69359;HTU21D;56520;49.066;8.660;2023-02-23T10:15:43;15.86;67.87
69359;HTU21D;56520;49.066;8.660;2023-02-23T10:21:10;16.21;65.72
69359;HTU21D;56520;49.066;8.660;2023-02-23T10:29:34;16.15;67.17
69359;HTU21D;56520;49.066;8.660;2023-02-23T10:32:04;16.13;65.48
69359;HTU21D;56520;49.066;8.660;2023-02-23T10:34:31;15.90;67.41
69359;HTU21D;56520;49.066;8.660;2023-02-23T10:37:00;15.91;67.27
69359;HTU21D;56520;49.066;8.660;2023-02-23T10:39:31;16.01;66.97
69359;HTU21D;56520;49.066;8.660;2023-02-23T10:42:15;16.14;65.30
69359;HTU21D;56520;49.066;8.660;2023-02-23T10:44:45;15.91;66.32
69359;HTU21D;56520;49.066;8.660;2023-02-23T10:47:14;15.60;67.97
69359;HTU21D;56520;49.066;8.660;2023-02-23T10:49:45;15.31;68.93
69359;HTU21D;56520;49.066;8.660;2023-02-23T10:52:12;15.07;69.94
69359;HTU21D;56520;49.066;8.660;2023-02-23T10:54:43;15.01;70.06
69359;HTU21D;56520;49.066;8.660;2023-02-23T10:57:19;15.12;70.19
69359;HTU21D;56520;49.066;8.660;2023-02-23T11:02:43;14.85;70.32
69359;HTU21D;56520;49.066;8.660;2023-02-23T11:13:33;14.89;70.52
69359;HTU21D;56520;49.066;8.660;2023-02-23T11:16:12;14.97;70.41
69359;HTU21D;56520;49.066;8.660;2023-02-23T11:18:40;15.01;70.54
69359;HTU21D;56520;49.066;8.660;2023-02-23T11:21:11;15.07;70.36
69359;HTU21D;56520;49.066;8.660;2023-02-23T11:23:37;15.03;68.33
69359;HTU21D;56520;49.066;8.660;2023-02-23T11:26:35;14.78;69.78
69359;HTU21D;56520;49.066;8.660;2023-02-23T11:29:14;14.59;70.06
69359;HTU21D;56520;49.066;8.660;2023-02-23T11:31:55;14.42;70.46
69359;HTU21D;56520;49.066;8.660;2023-02-23T11:34:32;14.30;71.25
69359;HTU21D;56520;49.066;8.660;2023-02-23T11:37:06;14.26;71.20
69359;HTU21D;56520;49.066;8.660;2023-02-23T11:39:32;14.19;71.77
69359;HTU21D;56520;49.066;8.660;2023-02-23T11:42:16;14.23;71.77
69359;HTU21D;56520;49.066;8.660;2023-02-23T11:44:49;14.34;71.64
69359;HTU21D;56520;49.066;8.660;2023-02-23T11:47:21;14.43;71.20
69359;HTU21D;56520;49.066;8.660;2023-02-23T11:49:48;14.44;71.42
69359;HTU21D;56520;49.066;8.660;2023-02-23T11:52:17;14.51;70.72
69359;HTU21D;56520;49.066;8.660;2023-02-23T11:54:55;14.49;70.68
69359;HTU21D;56520;49.066;8.660;2023-02-23T11:57:28;14.44;70.04
69359;HTU21D;56520;49.066;8.660;2023-02-23T11:59:55;14.32;70.75
69359;HTU21D;56520;49.066;8.660;2023-02-23T12:02:27;14.27;70.37
69359;HTU21D;56520;49.066;8.660;2023-02-23T12:05:17;14.12;70.84
69359;HTU21D;56520;49.066;8.660;2023-02-23T12:18:01;13.80;71.67
69359;HTU21D;56520;49.066;8.660;2023-02-23T12:20:31;13.83;71.75
69359;HTU21D;56520;49.066;8.660;2023-02-23T12:23:07;13.91;71.56
69359;HTU21D;56520;49.066;8.660;2023-02-23T12:28:17;14.08;71.54
69359;HTU21D;56520;49.066;8.660;2023-02-23T12:30:52;14.17;71.28
69359;HTU21D;56520;49.066;8.660;2023-02-23T12:33:41;14.23;71.35
69359;HTU21D;56520;49.066;8.660;2023-02-23T12:36:26;14.36;71.05
69359;HTU21D;56520;49.066;8.660;2023-02-23T12:39:28;14.50;70.75
69359;HTU21D;56520;49.066;8.660;2023-02-23T12:42:15;14.64;70.23
69359;HTU21D;56520;49.066;8.660;2023-02-23T12:47:20;14.70;68.27
69359;HTU21D;56520;49.066;8.660;2023-02-23T12:49:55;14.69;68.49
69359;HTU21D;56520;49.066;8.660;2023-02-23T12:52:26;14.72;68.01
69359;HTU21D;56520;49.066;8.660;2023-02-23T12:54:59;14.73;67.74
69359;HTU21D;56520;49.066;8.660;2023-02-23T12:57:45;14.78;68.60
69359;HTU21D;56520;49.066;8.660;2023-02-23T13:00:58;14.82;68.84
69359;HTU21D;56520;49.066;8.660;2023-02-23T13:06:15;15.22;67.89
69359;HTU21D;56520;49.066;8.660;2023-02-23T13:16:51;16.73;63.38
69359;HTU21D;56520;49.066;8.660;2023-02-23T13:19:22;16.87;60.72
69359;HTU21D;56520;49.066;8.660;2023-02-23T13:21:53;16.72;62.26
69359;HTU21D;56520;49.066;8.660;2023-02-23T13:24:45;16.52;63.35
69359;HTU21D;56520;49.066;8.660;2023-02-23T13:27:14;16.41;61.11
69359;HTU21D;56520;49.066;8.660;2023-02-23T13:29:44;16.25;61.23
69359;HTU21D;56520;49.066;8.660;2023-02-23T13:32:13;16.06;61.74
69359;HTU21D;56520;49.066;8.660;2023-02-23T13:34:44;15.96;62.45
69359;HTU21D;56520;49.066;8.660;2023-02-23T13:37:16;15.87;62.31
69359;HTU21D;56520;49.066;8.660;2023-02-23T13:40:02;15.81;62.92
69359;HTU21D;56520;49.066;8.660;2023-02-23T13:42:47;15.70;63.51
69359;HTU21D;56520;49.066;8.660;2023-02-23T13:53:01;15.41;65.35
69359;HTU21D;56520;49.066;8.660;2023-02-23T13:55:57;15.28;65.32
69359;HTU21D;56520;49.066;8.660;2023-02-23T13:58:29;15.10;65.37
69359;HTU21D;56520;49.066;8.660;2023-02-23T14:01:08;14.97;65.62
69359;HTU21D;56520;49.066;8.660;2023-02-23T14:03:40;14.89;66.31
69359;HTU21D;56520;49.066;8.660;2023-02-23T14:06:06;14.79;66.83
69359;HTU21D;56520;49.066;8.660;2023-02-23T14:08:37;14.70;67.24
69359;HTU21D;56520;49.066;8.660;2023-02-23T14:11:04;14.66;67.02
69359;HTU21D;56520;49.066;8.660;2023-02-23T14:13:44;14.59;66.91
69359;HTU21D;56520;49.066;8.660;2023-02-23T14:16:24;14.52;67.06
69359;HTU21D;56520;49.066;8.660;2023-02-23T14:24:22;14.59;66.99
69359;HTU21D;56520;49.066;8.660;2023-02-23T14:29:41;14.69;67.50
69359;HTU21D;56520;49.066;8.660;2023-02-23T14:35:07;14.78;67.17
69359;HTU21D;56520;49.066;8.660;2023-02-23T14:37:58;14.67;67.43
69359;HTU21D;56520;49.066;8.660;2023-02-23T14:40:30;14.63;67.15
69359;HTU21D;56520;49.066;8.660;2023-02-23T14:42:59;14.57;67.39
69359;HTU21D;56520;49.066;8.660;2023-02-23T14:45:27;14.57;67.38
69359;HTU21D;56520;49.066;8.660;2023-02-23T14:48:11;14.49;67.77
69359;HTU21D;56520;49.066;8.660;2023-02-23T14:50:38;14.43;67.97
69359;HTU21D;56520;49.066;8.660;2023-02-23T14:53:09;14.37;68.28
69359;HTU21D;56520;49.066;8.660;2023-02-23T14:55:40;14.30;68.39
69359;HTU21D;56520;49.066;8.660;2023-02-23T14:58:27;14.25;68.78
69359;HTU21D;56520;49.066;8.660;2023-02-23T15:00:53;14.23;68.75
69359;HTU21D;56520;49.066;8.660;2023-02-23T15:03:19;14.18;69.20
69359;HTU21D;56520;49.066;8.660;2023-02-23T15:05:50;14.11;69.48
69359;HTU21D;56520;49.066;8.660;2023-02-23T15:08:22;14.01;69.84
69359;HTU21D;56520;49.066;8.660;2023-02-23T15:10:59;13.92;69.88
69359;HTU21D;56520;49.066;8.660;2023-02-23T15:13:26;13.81;69.99
69359;HTU21D;56520;49.066;8.660;2023-02-23T15:15:52;13.76;70.24
69359;HTU21D;56520;49.066;8.660;2023-02-23T15:18:23;13.70;70.24
69359;HTU21D;56520;49.066;8.660;2023-02-23T15:20:52;13.69;70.48
69359;HTU21D;56520;49.066;8.660;2023-02-23T15:23:18;13.67;70.41
69359;HTU21D;56520;49.066;8.660;2023-02-23T15:25:43;13.68;70.42
69359;HTU21D;56520;49.066;8.660;2023-02-23T15:28:24;13.70;70.35
69359;HTU21D;56520;49.066;8.660;2023-02-23T15:30:52;13.70;70.30
69359;HTU21D;56520;49.066;8.660;2023-02-23T15:33:18;13.68;70.35
69359;HTU21D;56520;49.066;8.660;2023-02-23T15:36:22;13.70;70.41
69359;HTU21D;56520;49.066;8.660;2023-02-23T15:38:52;13.67;70.47
69359;HTU21D;56520;49.066;8.660;2023-02-23T15:41:30;13.64;70.51
69359;HTU21D;56520;49.066;8.660;2023-02-23T15:44:08;13.60;70.64
69359;HTU21D;56520;49.066;8.660;2023-02-23T15:46:35;13.58;70.60
69359;HTU21D;56520;49.066;8.660;2023-02-23T15:49:03;13.56;70.62
69359;HTU21D;56520;49.066;8.660;2023-02-23T15:51:37;13.52;70.72
69359;HTU21D;56520;49.066;8.660;2023-02-23T15:54:17;13.45;70.79
69359;HTU21D;56520;49.066;8.660;2023-02-23T15:56:47;13.38;70.96
69359;HTU21D;56520;49.066;8.660;2023-02-23T15:59:20;13.31;71.17
69359;HTU21D;56520;49.066;8.660;2023-02-23T16:01:51;13.24;71.30
69359;HTU21D;56520;49.066;8.660;2023-02-23T16:04:19;13.18;71.50
69359;HTU21D;56520;49.066;8.660;2023-02-23T16:06:53;13.14;71.86
69359;HTU21D;56520;49.066;8.660;2023-02-23T16:11:59;12.99;72.35
69359;HTU21D;56520;49.066;8.660;2023-02-23T16:14:31;12.91;72.61
69359;HTU21D;56520;49.066;8.660;2023-02-23T16:16:57;12.86;72.87
69359;HTU21D;56520;49.066;8.660;2023-02-23T16:19:24;12.80;73.22
69359;HTU21D;56520;49.066;8.660;2023-02-23T16:21:52;12.76;73.57
69359;HTU21D;56520;49.066;8.660;2023-02-23T16:24:23;12.70;73.62
69359;HTU21D;56520;49.066;8.660;2023-02-23T16:26:56;12.63;73.80
69359;HTU21D;56520;49.066;8.660;2023-02-23T16:29:31;12.58;73.90
69359;HTU21D;56520;49.066;8.660;2023-02-23T16:32:10;12.53;73.99
69359;HTU21D;56520;49.066;8.660;2023-02-23T16:39:42;12.33;74.21
69359;HTU21D;56520;49.066;8.660;2023-02-23T16:42:33;12.26;74.44
69359;HTU21D;56520;49.066;8.660;2023-02-23T16:44:59;12.17;74.70
69359;HTU21D;56520;49.066;8.660;2023-02-23T16:47:40;12.07;74.99
69359;HTU21D;56520;49.066;8.660;2023-02-23T16:52:43;11.91;75.64
69359;HTU21D;56520;49.066;8.660;2023-02-23T16:55:14;11.84;76.37
69359;HTU21D;56520;49.066;8.660;2023-02-23T16:57:41;11.77;76.45
69359;HTU21D;56520;49.066;8.660;2023-02-23T17:00:08;11.70;76.66
69359;HTU21D;56520;49.066;8.660;2023-02-23T17:02:43;11.61;76.71
69359;HTU21D;56520;49.066;8.660;2023-02-23T17:05:13;11.56;76.95
69359;HTU21D;56520;49.066;8.660;2023-02-23T17:07:40;11.52;77.09
69359;HTU21D;56520;49.066;8.660;2023-02-23T17:10:08;11.45;77.15
69359;HTU21D;56520;49.066;8.660;2023-02-23T17:12:35;11.41;77.40
69359;HTU21D;56520;49.066;8.660;2023-02-23T17:15:01;11.38;77.49
69359;HTU21D;56520;49.066;8.660;2023-02-23T17:17:28;11.32;77.62
69359;HTU21D;56520;49.066;8.660;2023-02-23T17:19:55;11.25;77.79
69359;HTU21D;56520;49.066;8.660;2023-02-23T17:22:21;11.17;78.07
69359;HTU21D;56520;49.066;8.660;2023-02-23T17:24:47;11.09;78.27
69359;HTU21D;56520;49.066;8.660;2023-02-23T17:27:12;11.01;78.57
69359;HTU21D;56520;49.066;8.660;2023-02-23T17:29:39;10.94;78.94
69359;HTU21D;56520;49.066;8.660;2023-02-23T17:32:04;10.85;79.15
69359;HTU21D;56520;49.066;8.660;2023-02-23T17:34:30;10.77;79.43
69359;HTU21D;56520;49.066;8.660;2023-02-23T17:36:56;10.70;79.62
69359;HTU21D;56520;49.066;8.660;2023-02-23T17:39:21;10.69;79.77
69359;HTU21D;56520;49.066;8.660;2023-02-23T17:41:55;10.69;79.75
69359;HTU21D;56520;49.066;8.660;2023-02-23T17:44:23;10.69;79.82